createdAt,value
2022-08-26T00:00:11.243Z,53.83
2022-08-26T00:02:40.119Z,53.84
2022-08-26T00:05:08.374Z,53.74
2022-08-26T00:07:36.485Z,53.97
2022-08-26T00:10:06.188Z,54.21
2022-08-26T00:12:35.892Z,54.21
2022-08-26T00:15:06.304Z,54.20
2022-08-26T00:17:34.541Z,54.44
2022-08-26T00:20:02.626Z,54.61
2022-08-26T00:22:31.231Z,55.48
2022-08-26T00:25:01.714Z,55.87
2022-08-26T00:27:33.867Z,56.39
2022-08-26T00:30:02.593Z,56.72
2022-08-26T00:32:31.817Z,57.35
2022-08-26T00:35:02.483Z,57.55
2022-08-26T00:37:30.387Z,57.62
2022-08-26T00:39:58.278Z,58.25
2022-08-26T00:42:28.740Z,58.20
2022-08-26T00:44:56.886Z,58.49
2022-08-26T00:47:37.475Z,60.20
2022-08-26T00:50:11.628Z,59.19
2022-08-26T00:52:40.676Z,59.04
2022-08-26T00:55:20.247Z,59.58
2022-08-26T00:57:50.460Z,59.44
2022-08-26T01:00:24.121Z,59.79
2022-08-26T01:02:52.165Z,59.45
2022-08-26T01:05:21.625Z,59.81
2022-08-26T01:07:49.815Z,60.45
2022-08-26T01:10:22.284Z,60.34
2022-08-26T01:12:56.481Z,61.53
2022-08-26T01:15:32.803Z,61.01
2022-08-26T01:18:01.401Z,61.23
2022-08-26T01:20:39.290Z,61.70
2022-08-26T01:23:10.842Z,62.10
2022-08-26T01:25:47.096Z,62.55
2022-08-26T01:28:21.674Z,63.25
2022-08-26T01:30:52.978Z,64.09
2022-08-26T01:33:24.495Z,64.81
2022-08-26T01:35:52.500Z,64.54
2022-08-26T01:38:23.733Z,64.66
2022-08-26T01:40:52.053Z,65.62
2022-08-26T01:43:28.367Z,65.63
2022-08-26T01:45:56.995Z,65.45
2022-08-26T01:48:29.246Z,65.94
2022-08-26T01:50:57.480Z,66.36
2022-08-26T01:53:28.033Z,66.70
2022-08-26T01:56:00.613Z,66.65
2022-08-26T01:58:33.739Z,67.08
2022-08-26T02:01:02.939Z,67.99
2022-08-26T02:03:32.487Z,67.92
2022-08-26T02:06:03.911Z,68.15
2022-08-26T02:08:39.262Z,68.57
2022-08-26T02:11:07.616Z,68.38
2022-08-26T02:13:39.830Z,68.22
2022-08-26T02:16:09.403Z,68.23
2022-08-26T02:18:39.831Z,69.23
2022-08-26T02:21:09.150Z,69.02
2022-08-26T02:23:39.186Z,69.98
2022-08-26T02:26:11.138Z,69.97
2022-08-26T02:28:46.272Z,71.77
2022-08-26T02:31:14.204Z,71.16
2022-08-26T02:33:43.046Z,71.07
2022-08-26T02:36:13.398Z,70.86
2022-08-26T02:38:43.154Z,70.67
2022-08-26T02:41:11.270Z,70.84
2022-08-26T02:43:39.129Z,71.01
2022-08-26T02:46:07.389Z,71.38
2022-08-26T02:48:35.264Z,70.75
2022-08-26T02:51:04.377Z,70.29
2022-08-26T02:53:35.532Z,70.82
2022-08-26T02:56:05.584Z,71.72
2022-08-26T02:58:33.551Z,71.61
2022-08-26T03:01:02.127Z,72.11
2022-08-26T03:03:33.561Z,72.71
2022-08-26T03:06:01.563Z,72.96
2022-08-26T03:08:29.385Z,73.76
2022-08-26T03:10:57.270Z,74.13
2022-08-26T03:13:26.496Z,74.28
2022-08-26T03:15:55.175Z,74.55
2022-08-26T03:18:24.337Z,75.28
2022-08-26T03:20:52.312Z,75.29
2022-08-26T03:23:20.174Z,75.25
2022-08-26T03:25:50.951Z,75.32
2022-08-26T03:28:19.491Z,75.15
2022-08-26T03:30:49.138Z,75.10
2022-08-26T03:33:17.345Z,74.36
2022-08-26T03:35:48.026Z,75.51
2022-08-26T03:38:19.781Z,75.21
2022-08-26T03:40:48.637Z,75.64
2022-08-26T03:43:19.047Z,75.39
2022-08-26T03:45:48.264Z,75.31
2022-08-26T03:48:19.116Z,75.28
2022-08-26T03:50:47.005Z,75.13
2022-08-26T03:53:16.648Z,75.23
2022-08-26T03:55:48.498Z,75.30
2022-08-26T03:58:20.483Z,75.44
2022-08-26T04:00:51.409Z,75.49
2022-08-26T04:03:37.606Z,76.01
2022-08-26T04:06:06.013Z,75.72
2022-08-26T04:08:33.901Z,75.59
2022-08-26T04:11:01.831Z,75.63
2022-08-26T04:13:29.991Z,75.92
2022-08-26T04:15:59.606Z,76.41
2022-08-26T04:18:36.915Z,76.03
2022-08-26T04:21:05.599Z,75.87
2022-08-26T04:23:46.894Z,76.04
2022-08-26T04:26:15.921Z,76.08
2022-08-26T04:28:44.096Z,75.95
2022-08-26T04:31:14.862Z,76.02
2022-08-26T04:33:43.373Z,75.90
2022-08-26T04:36:11.230Z,75.65
2022-08-26T04:38:39.209Z,75.71
2022-08-26T04:41:15.649Z,75.50
2022-08-26T04:43:45.618Z,75.32
2022-08-26T04:46:22.061Z,75.98
2022-08-26T04:48:51.298Z,75.59
2022-08-26T04:51:20.345Z,75.35
2022-08-26T04:53:48.708Z,75.15
2022-08-26T04:56:20.039Z,74.88
2022-08-26T04:58:49.560Z,75.12
2022-08-26T05:01:18.996Z,75.33
2022-08-26T05:03:46.938Z,75.77
2022-08-26T05:06:15.424Z,75.82
2022-08-26T05:08:47.003Z,75.44
2022-08-26T05:11:15.409Z,75.50
2022-08-26T05:13:43.635Z,75.44
2022-08-26T05:16:14.062Z,76.00
2022-08-26T05:18:45.813Z,75.96
2022-08-26T05:21:20.020Z,76.38
2022-08-26T05:23:48.380Z,76.61
2022-08-26T05:26:17.565Z,76.33
2022-08-26T05:28:51.072Z,76.78
2022-08-26T05:31:25.530Z,76.32
2022-08-26T05:33:55.358Z,75.98
2022-08-26T05:36:27.006Z,76.20
2022-08-26T05:38:55.256Z,76.20
2022-08-26T05:41:27.641Z,76.01
2022-08-26T05:44:04.089Z,75.85
2022-08-26T05:46:31.940Z,75.22
2022-08-26T05:49:01.610Z,75.58
2022-08-26T05:51:30.977Z,75.12
2022-08-26T05:54:00.332Z,75.45
2022-08-26T05:56:29.081Z,75.65
2022-08-26T05:58:58.576Z,75.52
2022-08-26T06:01:29.773Z,75.53
2022-08-26T06:03:59.669Z,75.49
2022-08-26T06:06:33.740Z,75.62
2022-08-26T06:09:03.543Z,75.43
2022-08-26T06:11:33.397Z,75.29
2022-08-26T06:14:05.898Z,75.56
2022-08-26T06:16:35.814Z,75.47
2022-08-26T06:19:10.366Z,76.11
2022-08-26T06:21:42.610Z,75.71
2022-08-26T06:24:31.043Z,75.80
2022-08-26T06:27:01.835Z,75.42
2022-08-26T06:29:31.570Z,75.50
2022-08-26T06:31:59.720Z,75.13
2022-08-26T06:34:30.508Z,74.98
2022-08-26T06:37:03.660Z,75.03
2022-08-26T06:39:32.588Z,74.99
2022-08-26T06:42:02.654Z,74.63
2022-08-26T06:44:32.410Z,74.64
2022-08-26T06:47:00.392Z,74.71
2022-08-26T06:49:28.294Z,74.32
2022-08-26T06:51:58.201Z,74.77
2022-08-26T06:54:28.384Z,74.75
2022-08-26T06:56:57.485Z,74.61
2022-08-26T06:59:25.659Z,74.23
2022-08-26T07:01:54.976Z,74.89
2022-08-26T07:04:24.661Z,74.84
2022-08-26T07:06:55.709Z,74.98
2022-08-26T07:09:25.378Z,74.98
2022-08-26T07:11:56.567Z,75.31
2022-08-26T07:14:26.100Z,74.84
2022-08-26T07:16:54.128Z,75.07
2022-08-26T07:19:28.541Z,75.24
2022-08-26T07:22:01.797Z,74.93
2022-08-26T07:24:31.296Z,74.69
2022-08-26T07:27:02.819Z,74.65
2022-08-26T07:29:31.485Z,74.37
2022-08-26T07:31:59.705Z,74.38
2022-08-26T07:34:27.953Z,74.33
2022-08-26T07:36:57.159Z,74.34
2022-08-26T07:39:28.502Z,73.89
2022-08-26T07:42:00.165Z,74.66
2022-08-26T07:44:30.358Z,73.82
2022-08-26T07:46:58.797Z,74.31
2022-08-26T07:49:28.151Z,74.06
2022-08-26T07:51:56.979Z,74.03
2022-08-26T07:54:26.982Z,73.74
2022-08-26T07:56:56.095Z,73.64
2022-08-26T07:59:24.977Z,73.43
2022-08-26T08:01:55.051Z,73.42
2022-08-26T08:04:26.554Z,73.31
2022-08-26T08:06:56.077Z,73.21
2022-08-26T08:09:25.289Z,72.82
2022-08-26T08:11:54.055Z,72.92
2022-08-26T08:14:22.407Z,72.80
2022-08-26T08:16:51.165Z,72.68
2022-08-26T08:19:24.435Z,72.63
2022-08-26T08:22:05.277Z,73.34
2022-08-26T08:24:45.123Z,73.55
2022-08-26T08:27:13.152Z,73.47
2022-08-26T08:29:41.611Z,72.86
2022-08-26T08:32:11.420Z,73.15
2022-08-26T08:37:14.067Z,72.98
2022-08-26T08:39:42.060Z,73.46
2022-08-26T08:42:35.544Z,73.16
2022-08-26T08:45:08.959Z,72.86
2022-08-26T08:47:42.137Z,72.52
2022-08-26T08:50:21.837Z,72.59
2022-08-26T08:52:57.412Z,72.56
2022-08-26T08:55:32.443Z,72.39
2022-08-26T08:58:06.546Z,72.05
2022-08-26T09:00:44.203Z,71.85
2022-08-26T09:03:26.830Z,72.29
2022-08-26T09:05:56.635Z,72.00
2022-08-26T09:08:29.378Z,71.54
2022-08-26T09:10:59.753Z,71.32
2022-08-26T09:13:28.146Z,70.86
2022-08-26T09:16:06.661Z,70.58
2022-08-26T09:19:00.516Z,70.95
2022-08-26T09:21:30.462Z,70.88
2022-08-26T09:23:59.530Z,70.90
2022-08-26T09:26:31.084Z,70.51
2022-08-26T09:29:01.030Z,70.43
2022-08-26T09:31:31.098Z,70.34
2022-08-26T09:34:17.395Z,70.59
2022-08-26T09:36:49.015Z,70.25
2022-08-26T09:39:33.797Z,69.99
2022-08-26T09:42:11.720Z,70.01
2022-08-26T09:44:59.686Z,69.73
2022-08-26T09:47:31.686Z,69.43
2022-08-26T09:50:09.420Z,69.07
2022-08-26T09:52:40.394Z,69.52
2022-08-26T09:55:14.774Z,69.22
2022-08-26T09:57:51.106Z,69.16
2022-08-26T10:00:34.728Z,69.02
2022-08-26T10:03:10.767Z,68.77
2022-08-26T10:05:44.563Z,68.58
2022-08-26T10:08:27.350Z,68.49
2022-08-26T10:10:57.284Z,68.35
2022-08-26T10:13:30.161Z,68.36
2022-08-26T10:16:07.007Z,68.42
2022-08-26T10:18:42.223Z,68.32
2022-08-26T10:21:15.456Z,68.02
2022-08-26T10:23:50.917Z,67.79
2022-08-26T10:26:26.492Z,67.99
2022-08-26T10:29:03.777Z,68.09
2022-08-26T10:31:40.725Z,68.13
2022-08-26T10:34:09.935Z,67.77
2022-08-26T10:37:13.471Z,68.03
2022-08-26T10:39:48.212Z,67.78
2022-08-26T10:42:23.320Z,67.13
2022-08-26T10:44:54.900Z,67.82
2022-08-26T10:47:33.297Z,67.45
2022-08-26T10:50:03.651Z,67.03
2022-08-26T10:52:46.319Z,67.19
2022-08-26T10:55:24.360Z,67.08
2022-08-26T10:58:00.221Z,67.25
2022-08-26T11:00:55.944Z,66.98
2022-08-26T11:03:34.429Z,67.12
2022-08-26T11:06:23.692Z,66.85
2022-08-26T11:08:53.606Z,66.15
2022-08-26T11:11:50.802Z,66.44
2022-08-26T11:14:53.566Z,66.57
2022-08-26T11:17:58.130Z,65.90
2022-08-26T11:20:37.266Z,65.71
2022-08-26T11:23:40.382Z,65.72
2022-08-26T11:26:20.401Z,65.53
2022-08-26T11:29:12.108Z,65.55
2022-08-26T11:31:56.321Z,65.86
2022-08-26T11:34:54.028Z,65.93
2022-08-26T11:37:27.297Z,66.14
2022-08-26T11:39:56.945Z,65.63
2022-08-26T11:42:33.190Z,65.30
2022-08-26T11:45:14.356Z,65.53
2022-08-26T11:47:42.365Z,65.75
2022-08-26T11:50:14.455Z,65.26
2022-08-26T11:52:42.303Z,65.78
2022-08-26T11:55:14.947Z,65.73
2022-08-26T11:57:47.492Z,65.38
2022-08-26T12:00:22.640Z,64.62
2022-08-26T12:02:52.603Z,64.81
2022-08-26T12:05:30.954Z,64.55
2022-08-26T12:08:02.851Z,64.63
2022-08-26T12:10:33.680Z,64.81
2022-08-26T12:13:03.170Z,64.79
2022-08-26T12:15:34.167Z,64.04
2022-08-26T12:18:28.954Z,63.81
2022-08-26T12:20:59.846Z,64.06
2022-08-26T12:23:37.326Z,63.69
2022-08-26T12:26:08.465Z,63.49
2022-08-26T12:28:43.753Z,63.50
2022-08-26T12:31:13.277Z,63.61
2022-08-26T12:33:45.328Z,63.38
2022-08-26T12:36:13.567Z,63.46
2022-08-26T12:38:41.542Z,63.56
2022-08-26T12:41:09.456Z,63.30
2022-08-26T12:43:43.062Z,63.32
2022-08-26T12:46:15.326Z,63.40
2022-08-26T12:48:48.453Z,63.17
2022-08-26T12:51:25.169Z,63.09
2022-08-26T12:53:53.729Z,63.00
2022-08-26T12:56:32.441Z,63.04
2022-08-26T12:59:12.259Z,63.27
2022-08-26T13:01:45.297Z,62.69
2022-08-26T13:04:36.746Z,63.36
2022-08-26T13:07:22.949Z,63.14
2022-08-26T13:09:51.879Z,63.10
2022-08-26T13:12:31.160Z,63.29
2022-08-26T13:14:59.924Z,63.35
2022-08-26T13:17:30.447Z,62.61
2022-08-26T13:20:03.541Z,62.16
2022-08-26T13:22:31.969Z,62.44
2022-08-26T13:24:59.854Z,62.37
2022-08-26T13:27:28.516Z,62.34
2022-08-26T13:29:58.985Z,62.22
2022-08-26T13:32:27.813Z,62.35
2022-08-26T13:34:58.896Z,62.09
2022-08-26T13:37:34.328Z,62.17
2022-08-26T13:40:04.864Z,62.51
2022-08-26T13:42:32.919Z,62.55
2022-08-26T13:45:02.383Z,62.45
2022-08-26T13:47:30.754Z,62.64
2022-08-26T13:50:00.059Z,62.50
2022-08-26T13:52:30.688Z,62.76
2022-08-26T13:54:59.302Z,62.66
2022-08-26T13:57:28.503Z,62.63
2022-08-26T13:59:59.016Z,62.43
2022-08-26T14:02:27.488Z,62.51
2022-08-26T14:04:55.953Z,62.75
2022-08-26T14:07:26.928Z,62.71
2022-08-26T14:09:54.987Z,62.58
2022-08-26T14:12:22.809Z,62.76
2022-08-26T14:14:50.677Z,62.83
2022-08-26T14:17:22.816Z,63.08
2022-08-26T14:19:51.677Z,63.12
2022-08-26T14:22:22.439Z,63.63
2022-08-26T14:24:52.357Z,63.52
2022-08-26T14:27:20.166Z,63.76
2022-08-26T14:29:47.979Z,63.57
2022-08-26T14:32:23.132Z,63.75
2022-08-26T14:34:51.234Z,63.44
2022-08-26T14:37:19.230Z,63.72
2022-08-26T14:39:47.659Z,63.49
2022-08-26T14:42:19.947Z,63.43
2022-08-26T14:44:57.598Z,63.26
2022-08-26T14:47:25.623Z,63.46
2022-08-26T14:49:53.532Z,62.98
2022-08-26T14:52:21.557Z,63.02
2022-08-26T14:54:48.422Z,63.29
2022-08-26T14:57:24.178Z,63.23
2022-08-26T14:59:52.006Z,63.72
2022-08-26T15:02:22.261Z,64.21
2022-08-26T15:05:00.836Z,64.52
2022-08-26T15:07:28.709Z,64.57
2022-08-26T15:09:56.616Z,64.63
2022-08-26T15:12:26.162Z,64.56
2022-08-26T15:14:53.991Z,64.89
2022-08-26T15:17:21.840Z,64.99
2022-08-26T15:19:49.671Z,64.67
2022-08-26T15:22:17.636Z,64.75
2022-08-26T15:24:45.655Z,64.11
2022-08-26T15:27:13.629Z,64.31
2022-08-26T15:29:42.809Z,64.15
2022-08-26T15:32:11.046Z,64.25
2022-08-26T15:34:39.300Z,64.25
2022-08-26T15:37:08.405Z,63.93
2022-08-26T15:39:36.686Z,64.05
2022-08-26T15:42:05.300Z,63.94
2022-08-26T15:44:34.087Z,63.67
2022-08-26T15:47:03.492Z,63.39
2022-08-26T15:49:31.416Z,63.41
2022-08-26T15:51:59.316Z,63.64
2022-08-26T15:54:27.193Z,63.47
2022-08-26T15:56:55.079Z,63.44
2022-08-26T15:59:23.472Z,63.55
2022-08-26T16:01:51.593Z,63.32
2022-08-26T16:04:21.401Z,63.51
2022-08-26T16:06:52.127Z,63.33
2022-08-26T16:09:22.838Z,63.33
2022-08-26T16:11:52.120Z,63.23
2022-08-26T16:14:19.990Z,63.76
2022-08-26T16:16:48.171Z,63.20
2022-08-26T16:19:16.467Z,63.31
2022-08-26T16:21:46.447Z,63.55
2022-08-26T16:24:14.306Z,63.77
2022-08-26T16:26:43.944Z,64.33
2022-08-26T16:29:13.945Z,64.07
2022-08-26T16:31:42.107Z,64.39
2022-08-26T16:34:10.746Z,64.41
2022-08-26T16:36:40.143Z,64.69
2022-08-26T16:39:09.874Z,64.84
2022-08-26T16:41:38.398Z,64.41
2022-08-26T16:44:08.262Z,64.52
2022-08-26T16:46:36.936Z,64.13
2022-08-26T16:49:05.460Z,64.24
2022-08-26T16:51:37.752Z,64.22
2022-08-26T16:54:07.446Z,64.32
2022-08-26T16:56:36.858Z,64.08
2022-08-26T16:59:06.156Z,64.18
2022-08-26T17:01:34.089Z,64.04
2022-08-26T17:04:02.138Z,64.26
2022-08-26T17:06:30.083Z,64.34
2022-08-26T17:08:58.013Z,64.16
2022-08-26T17:11:25.859Z,64.29
2022-08-26T17:13:55.161Z,64.23
2022-08-26T17:16:26.704Z,64.10
2022-08-26T17:18:56.142Z,64.38
2022-08-26T17:21:24.606Z,64.61
2022-08-26T17:23:52.499Z,64.30
2022-08-26T17:26:20.726Z,64.53
2022-08-26T17:28:48.784Z,64.44
2022-08-26T17:31:18.253Z,64.29
2022-08-26T17:33:50.284Z,64.55
2022-08-26T17:36:21.649Z,64.44
2022-08-26T17:38:50.342Z,64.95
2022-08-26T17:41:22.179Z,64.80
2022-08-26T17:43:50.305Z,64.79
2022-08-26T17:46:20.166Z,65.14
2022-08-26T17:48:48.284Z,65.04
2022-08-26T17:51:19.172Z,65.24
2022-08-26T17:53:48.875Z,65.30
2022-08-26T17:56:20.261Z,65.39
2022-08-26T17:58:51.865Z,65.33
2022-08-26T18:01:22.168Z,65.54
2022-08-26T18:03:50.560Z,65.55
2022-08-26T18:06:18.621Z,65.59
2022-08-26T18:08:46.977Z,65.92
2022-08-26T18:11:17.388Z,65.64
2022-08-26T18:13:47.571Z,65.67
2022-08-26T18:16:17.014Z,65.59
2022-08-26T18:18:47.714Z,65.75
2022-08-26T18:21:17.096Z,66.09
2022-08-26T18:23:45.543Z,65.74
2022-08-26T18:26:18.070Z,65.74
2022-08-26T18:28:46.412Z,66.07
2022-08-26T18:31:15.309Z,66.15
2022-08-26T18:33:44.122Z,66.07
2022-08-26T18:36:18.514Z,66.47
2022-08-26T18:38:47.035Z,66.37
2022-08-26T18:41:15.458Z,66.03
2022-08-26T18:43:43.587Z,66.21
2022-08-26T18:46:12.234Z,66.63
2022-08-26T18:48:42.642Z,66.29
2022-08-26T18:51:18.900Z,66.44
2022-08-26T18:53:47.728Z,66.43
2022-08-26T18:56:18.152Z,66.27
2022-08-26T18:58:46.804Z,66.37
2022-08-26T19:01:16.334Z,66.13
2022-08-26T19:03:44.497Z,66.67
2022-08-26T19:06:15.466Z,66.65
2022-08-26T19:08:45.013Z,66.33
2022-08-26T19:11:14.308Z,66.46
2022-08-26T19:13:42.333Z,66.81
2022-08-26T19:16:16.452Z,66.21
2022-08-26T19:18:44.744Z,66.36
2022-08-26T19:21:12.694Z,66.61
2022-08-26T19:23:40.723Z,66.90
2022-08-26T19:26:11.136Z,67.63
2022-08-26T19:28:40.869Z,67.26
2022-08-26T19:31:10.883Z,67.84
2022-08-26T19:33:39.563Z,67.66
2022-08-26T19:36:11.503Z,67.34
2022-08-26T19:38:43.236Z,67.68
2022-08-26T19:41:14.040Z,67.93
2022-08-26T19:43:42.575Z,67.87
2022-08-26T19:46:12.835Z,68.27
2022-08-26T19:48:44.054Z,68.19
2022-08-26T19:51:14.172Z,68.18
2022-08-26T19:53:42.264Z,68.59
2022-08-26T19:56:10.445Z,68.12
2022-08-26T19:58:39.897Z,68.34
2022-08-26T20:01:08.776Z,67.95
2022-08-26T20:03:37.699Z,68.17
2022-08-26T20:06:06.853Z,68.10
2022-08-26T20:08:35.352Z,68.52
2022-08-26T20:11:05.237Z,68.19
2022-08-26T20:13:33.431Z,68.74
2022-08-26T20:16:03.136Z,68.52
2022-08-26T20:18:48.644Z,68.22
2022-08-26T20:21:29.229Z,68.41
2022-08-26T20:24:00.618Z,68.46
2022-08-26T20:26:29.966Z,68.75
2022-08-26T20:28:58.308Z,68.75
2022-08-26T20:31:28.672Z,68.75
2022-08-26T20:33:56.823Z,68.85
2022-08-26T20:36:29.350Z,68.94
2022-08-26T20:38:57.918Z,69.25
2022-08-26T20:41:26.441Z,69.31
2022-08-26T20:43:54.475Z,69.85
2022-08-26T20:46:25.121Z,70.04
2022-08-26T20:48:55.666Z,70.04
2022-08-26T20:51:26.119Z,70.17
2022-08-26T20:53:54.129Z,70.19
2022-08-26T20:56:24.367Z,70.26
2022-08-26T20:58:54.089Z,70.61
2022-08-26T21:01:25.289Z,70.34
2022-08-26T21:03:55.804Z,70.20
2022-08-26T21:06:24.359Z,70.45
2022-08-26T21:08:52.624Z,70.23
2022-08-26T21:11:21.508Z,69.99
2022-08-26T21:14:04.420Z,70.01
2022-08-26T21:16:36.808Z,70.94
2022-08-26T21:19:07.997Z,71.25
2022-08-26T21:21:36.258Z,72.04
2022-08-26T21:24:04.884Z,72.19
2022-08-26T21:26:34.335Z,72.08
2022-08-26T21:29:03.192Z,72.08
2022-08-26T21:31:32.037Z,72.11
2022-08-26T21:34:00.759Z,72.51
2022-08-26T21:36:30.170Z,73.52
2022-08-26T21:38:58.122Z,73.12
2022-08-26T21:41:27.729Z,73.88
2022-08-26T21:43:59.229Z,73.35
2022-08-26T21:46:29.645Z,73.76
2022-08-26T21:49:00.262Z,73.88
2022-08-26T21:51:31.385Z,73.65
2022-08-26T21:54:00.597Z,73.54
2022-08-26T21:56:31.643Z,74.08
2022-08-26T21:59:00.848Z,73.95
2022-08-26T22:01:31.901Z,74.25
2022-08-26T22:04:00.391Z,73.77
2022-08-26T22:06:29.917Z,73.92
2022-08-26T22:08:58.108Z,74.29
2022-08-26T22:11:27.523Z,74.09
2022-08-26T22:13:56.799Z,74.00
2022-08-26T22:16:26.891Z,74.05
2022-08-26T22:18:55.312Z,74.77
2022-08-26T22:21:25.202Z,74.98
2022-08-26T22:23:58.077Z,74.94
2022-08-26T22:26:28.771Z,74.80
2022-08-26T22:28:59.195Z,74.69
2022-08-26T22:31:37.542Z,75.31
2022-08-26T22:34:08.061Z,75.36
2022-08-26T22:36:43.219Z,75.41
2022-08-26T22:39:14.837Z,75.61
2022-08-26T22:41:43.337Z,75.90
2022-08-26T22:44:12.541Z,76.14
2022-08-26T22:46:41.630Z,76.02
2022-08-26T22:49:10.251Z,76.42
2022-08-26T22:51:38.191Z,76.34
2022-08-26T22:54:06.695Z,76.10
2022-08-26T22:56:36.937Z,75.78
2022-08-26T22:59:05.384Z,75.70
2022-08-26T23:01:36.648Z,75.82
2022-08-26T23:04:06.299Z,76.30
2022-08-26T23:06:36.483Z,76.77
2022-08-26T23:09:05.266Z,76.66
2022-08-26T23:11:33.123Z,76.95
2022-08-26T23:14:06.289Z,76.93
2022-08-26T23:16:38.014Z,76.67
2022-08-26T23:19:07.894Z,77.04
2022-08-26T23:24:04.073Z,76.79
2022-08-26T23:26:32.235Z,76.91
2022-08-26T23:29:00.255Z,77.11
2022-08-26T23:31:30.075Z,77.24
2022-08-26T23:34:15.490Z,77.64
2022-08-26T23:36:45.304Z,77.76
2022-08-26T23:39:15.223Z,78.38
2022-08-26T23:41:43.707Z,77.95
2022-08-26T23:44:12.297Z,77.94
2022-08-26T23:46:41.738Z,78.08
2022-08-26T23:49:09.945Z,77.88
2022-08-26T23:51:53.295Z,78.14
2022-08-26T23:54:21.148Z,77.75
2022-08-26T23:56:48.976Z,77.95
2022-08-26T23:59:16.847Z,77.92
